createdAt,value
2022-11-09T00:01:17.820Z,19.40
2022-11-09T00:03:45.889Z,19.40
2022-11-09T00:06:15.937Z,19.40
2022-11-09T00:08:43.806Z,19.40
2022-11-09T00:11:13.021Z,19.40
2022-11-09T00:13:43.104Z,19.40
2022-11-09T00:16:12.372Z,19.40
2022-11-09T00:18:41.367Z,19.30
2022-11-09T00:21:10.154Z,19.30
2022-11-09T00:23:39.638Z,19.40
2022-11-09T00:26:09.487Z,19.40
2022-11-09T00:28:37.751Z,19.40
2022-11-09T00:31:07.680Z,19.30
2022-11-09T00:33:36.286Z,19.40
2022-11-09T00:36:07.677Z,19.30
2022-11-09T00:38:36.248Z,19.30
2022-11-09T00:41:06.753Z,19.40
2022-11-09T00:43:35.130Z,19.30
2022-11-09T00:46:03.483Z,19.40
2022-11-09T00:48:31.956Z,19.30
2022-11-09T00:51:00.163Z,19.40
2022-11-09T00:53:29.197Z,19.30
2022-11-09T00:55:58.761Z,19.30
2022-11-09T00:58:29.790Z,19.30
2022-11-09T01:00:59.073Z,19.30
2022-11-09T01:03:27.961Z,19.30
2022-11-09T01:05:59.832Z,19.30
2022-11-09T01:08:27.939Z,19.30
2022-11-09T01:10:56.224Z,19.30
2022-11-09T01:13:24.736Z,19.30
2022-11-09T01:15:54.840Z,19.30
2022-11-09T01:18:23.534Z,19.30
2022-11-09T01:20:51.992Z,19.30
2022-11-09T01:23:21.529Z,19.30
2022-11-09T01:25:49.692Z,19.30
2022-11-09T01:28:18.084Z,19.30
2022-11-09T01:30:46.837Z,19.30
2022-11-09T01:33:16.396Z,19.30
2022-11-09T01:35:44.591Z,19.30
2022-11-09T01:38:13.398Z,19.30
2022-11-09T01:40:41.675Z,19.30
2022-11-09T01:43:17.697Z,19.30
2022-11-09T01:45:48.695Z,19.30
2022-11-09T01:48:22.829Z,19.30
2022-11-09T01:50:54.701Z,19.30
2022-11-09T01:53:32.359Z,19.30
2022-11-09T01:56:04.478Z,19.30
2022-11-09T01:58:38.939Z,19.20
2022-11-09T02:01:11.195Z,19.20
2022-11-09T02:03:43.961Z,19.20
2022-11-09T02:06:15.573Z,19.20
2022-11-09T02:08:45.234Z,19.20
2022-11-09T02:11:15.450Z,19.20
2022-11-09T02:13:47.312Z,19.20
2022-11-09T02:16:16.527Z,19.20
2022-11-09T02:18:51.451Z,19.20
2022-11-09T02:21:21.356Z,19.20
2022-11-09T02:23:49.663Z,19.20
2022-11-09T02:26:24.631Z,19.20
2022-11-09T02:28:55.497Z,19.20
2022-11-09T02:31:28.506Z,19.20
2022-11-09T02:34:00.829Z,19.20
2022-11-09T02:36:30.245Z,19.20
2022-11-09T02:38:59.237Z,19.20
2022-11-09T02:41:28.617Z,19.20
2022-11-09T02:43:57.237Z,19.20
2022-11-09T02:46:27.189Z,19.10
2022-11-09T02:48:55.247Z,19.10
2022-11-09T02:51:23.300Z,19.10
2022-11-09T02:53:52.776Z,19.10
2022-11-09T02:56:20.818Z,19.10
2022-11-09T02:58:48.919Z,19.10
2022-11-09T03:01:17.034Z,19.10
2022-11-09T03:03:45.289Z,19.10
2022-11-09T03:06:13.398Z,19.10
2022-11-09T03:08:41.528Z,19.10
2022-11-09T03:11:10.960Z,19.10
2022-11-09T03:13:39.163Z,19.10
2022-11-09T03:16:08.673Z,19.10
2022-11-09T03:18:36.765Z,19.10
2022-11-09T03:21:05.482Z,19.10
2022-11-09T03:23:33.854Z,19.10
2022-11-09T03:26:01.940Z,19.00
2022-11-09T03:28:31.492Z,19.00
2022-11-09T03:30:59.542Z,19.00
2022-11-09T03:33:27.652Z,19.00
2022-11-09T03:35:55.707Z,19.00
2022-11-09T03:38:23.783Z,19.00
2022-11-09T03:40:51.831Z,19.00
2022-11-09T03:43:20.122Z,19.00
2022-11-09T03:45:49.862Z,19.00
2022-11-09T03:48:17.953Z,19.00
2022-11-09T03:50:45.995Z,19.00
2022-11-09T03:53:14.761Z,19.00
2022-11-09T03:55:42.827Z,19.00
2022-11-09T03:58:12.455Z,19.00
2022-11-09T04:00:40.568Z,19.00
2022-11-09T04:03:10.017Z,19.00
2022-11-09T04:05:38.106Z,19.00
2022-11-09T04:08:06.617Z,19.10
2022-11-09T04:18:01.041Z,19.00
2022-11-09T04:23:01.937Z,18.70
2022-11-09T04:25:33.600Z,19.00
2022-11-09T04:28:02.675Z,18.80
2022-11-09T04:33:01.466Z,19.00
2022-11-09T04:45:29.093Z,18.80
2022-11-09T04:50:28.367Z,19.00
2022-11-09T04:55:36.184Z,17.90
2022-11-09T05:00:33.161Z,18.80
2022-11-09T05:20:26.460Z,18.30
2022-11-09T05:43:01.741Z,18.40
2022-11-09T05:45:42.456Z,18.50
2022-11-09T05:48:12.133Z,18.50
2022-11-09T05:50:41.286Z,18.70
2022-11-09T05:53:10.279Z,18.50
2022-11-09T05:58:08.394Z,18.30
2022-11-09T06:00:36.758Z,18.60
2022-11-09T06:03:05.561Z,18.60
2022-11-09T06:05:34.286Z,18.70
2022-11-09T06:08:05.401Z,18.60
2022-11-09T06:18:00.402Z,19.00
2022-11-09T06:20:29.637Z,18.70
2022-11-09T06:23:02.789Z,18.90
2022-11-09T06:25:33.012Z,18.50
2022-11-09T06:33:03.556Z,18.80
2022-11-09T06:38:01.643Z,18.80
2022-11-09T06:45:29.092Z,18.80
2022-11-09T06:47:57.700Z,18.80
2022-11-09T06:50:28.053Z,18.60
2022-11-09T07:00:23.835Z,18.70
2022-11-09T07:02:51.957Z,18.40
2022-11-09T07:07:49.944Z,18.90
2022-11-09T07:20:14.834Z,18.50
2022-11-09T07:25:13.795Z,18.20
2022-11-09T07:30:11.709Z,18.60
2022-11-09T07:33:07.585Z,18.90
2022-11-09T07:43:00.754Z,18.70
2022-11-09T07:50:26.996Z,18.70
2022-11-09T07:55:25.024Z,18.70
2022-11-09T08:00:27.813Z,18.70
2022-11-09T08:15:28.039Z,18.90
2022-11-09T08:32:49.993Z,18.90
2022-11-09T08:35:20.499Z,18.80
2022-11-09T08:37:50.023Z,19.00
2022-11-09T08:58:18.354Z,19.70
2022-11-09T09:18:09.102Z,21.50
2022-11-09T09:20:38.631Z,22.30
2022-11-09T09:28:03.649Z,22.90
2022-11-09T09:33:01.176Z,22.10
2022-11-09T09:35:29.394Z,22.10
2022-11-09T09:37:59.191Z,22.30
2022-11-09T09:40:35.048Z,23.40
2022-11-09T09:43:03.682Z,24.90
2022-11-09T09:45:34.814Z,24.80
2022-11-09T09:48:14.885Z,26.00
2022-11-09T09:50:49.684Z,26.50
2022-11-09T09:53:28.050Z,26.20
2022-11-09T09:56:01.314Z,26.80
2022-11-09T09:58:31.367Z,27.30
2022-11-09T10:01:05.875Z,26.70
2022-11-09T10:03:34.013Z,27.70
2022-11-09T10:06:10.283Z,27.50
2022-11-09T10:08:49.024Z,27.90
2022-11-09T10:11:27.313Z,28.30
2022-11-09T10:14:08.245Z,27.70
2022-11-09T10:16:42.210Z,29.40
2022-11-09T10:19:27.459Z,29.30
2022-11-09T10:22:01.745Z,30.10
2022-11-09T10:24:48.513Z,30.60
2022-11-09T10:27:31.185Z,30.90
2022-11-09T10:30:04.864Z,30.30
2022-11-09T10:32:33.737Z,30.40
2022-11-09T10:35:07.845Z,30.70
2022-11-09T10:37:39.991Z,30.60
2022-11-09T10:40:18.964Z,30.30
2022-11-09T10:42:50.363Z,29.50
2022-11-09T10:45:32.580Z,28.60
2022-11-09T10:48:01.860Z,27.90
2022-11-09T10:50:34.341Z,27.20
2022-11-09T10:53:21.723Z,26.10
2022-11-09T10:55:56.481Z,27.00
2022-11-09T10:58:31.558Z,27.60
2022-11-09T11:01:03.243Z,28.90
2022-11-09T11:03:33.205Z,27.50
2022-11-09T11:06:02.715Z,28.30
2022-11-09T11:08:34.981Z,29.20
2022-11-09T11:11:35.556Z,28.90
2022-11-09T11:14:16.000Z,28.80
2022-11-09T11:16:50.740Z,28.70
2022-11-09T11:19:34.931Z,28.60
2022-11-09T11:22:27.602Z,28.30
2022-11-09T11:24:58.022Z,28.00
2022-11-09T11:27:33.168Z,27.20
2022-11-09T11:30:10.518Z,26.90
2022-11-09T11:32:38.837Z,26.20
2022-11-09T11:35:14.544Z,26.00
2022-11-09T11:37:52.639Z,26.00
2022-11-09T11:40:25.611Z,26.00
2022-11-09T11:43:17.284Z,26.20
2022-11-09T11:45:55.062Z,25.90
2022-11-09T11:48:43.293Z,27.00
2022-11-09T11:51:16.685Z,26.90
2022-11-09T11:54:04.053Z,25.70
2022-11-09T11:56:36.044Z,26.00
2022-11-09T11:59:24.523Z,27.30
2022-11-09T12:02:16.074Z,28.70
2022-11-09T12:05:14.873Z,28.30
2022-11-09T12:07:47.390Z,30.00
2022-11-09T12:10:28.511Z,29.80
2022-11-09T12:13:05.013Z,31.50
2022-11-09T12:15:48.971Z,30.70
2022-11-09T12:18:31.034Z,30.00
2022-11-09T12:21:11.283Z,29.80
2022-11-09T12:23:52.902Z,28.50
2022-11-09T12:26:31.669Z,28.30
2022-11-09T12:29:11.224Z,28.80
2022-11-09T12:31:50.581Z,28.50
2022-11-09T12:34:24.519Z,28.70
2022-11-09T12:36:56.786Z,29.00
2022-11-09T12:39:30.454Z,29.20
2022-11-09T12:42:05.566Z,29.50
2022-11-09T12:44:38.062Z,29.70
2022-11-09T12:47:15.401Z,29.90
2022-11-09T12:49:46.245Z,30.00
2022-11-09T12:52:16.594Z,30.20
2022-11-09T12:54:48.112Z,30.30
2022-11-09T12:57:22.725Z,30.50
2022-11-09T12:59:53.776Z,31.00
2022-11-09T13:02:31.126Z,32.80
2022-11-09T13:05:00.841Z,35.00
2022-11-09T13:07:49.863Z,36.80
2022-11-09T13:10:30.947Z,37.70
2022-11-09T13:13:19.748Z,38.40
2022-11-09T13:16:10.526Z,38.60
2022-11-09T13:18:52.321Z,38.50
2022-11-09T13:21:36.032Z,37.60
2022-11-09T13:24:49.589Z,36.00
2022-11-09T13:27:41.221Z,34.50
2022-11-09T13:30:42.018Z,33.40
2022-11-09T13:33:26.655Z,32.50
2022-11-09T13:36:16.718Z,32.10
2022-11-09T13:38:44.901Z,31.40
2022-11-09T13:41:43.992Z,30.80
2022-11-09T13:44:26.191Z,30.30
2022-11-09T13:46:55.416Z,29.80
2022-11-09T13:49:45.920Z,29.50
2022-11-09T13:52:53.421Z,29.20
2022-11-09T13:55:36.668Z,28.90
2022-11-09T13:58:24.560Z,28.70
2022-11-09T14:00:52.643Z,28.60
2022-11-09T14:03:24.788Z,28.30
2022-11-09T14:05:56.190Z,28.00
2022-11-09T14:08:26.473Z,27.70
2022-11-09T14:11:45.967Z,27.40
2022-11-09T14:14:34.490Z,27.20
2022-11-09T14:17:12.004Z,27.00
2022-11-09T14:20:01.148Z,26.80
2022-11-09T14:22:35.120Z,26.70
2022-11-09T14:25:06.570Z,26.50
2022-11-09T14:27:36.277Z,26.40
2022-11-09T14:30:15.198Z,26.20
2022-11-09T14:32:50.387Z,26.00
2022-11-09T14:35:24.460Z,26.00
2022-11-09T14:37:54.270Z,26.00
2022-11-09T14:40:25.283Z,26.00
2022-11-09T14:42:57.673Z,26.00
2022-11-09T14:45:26.089Z,26.00
2022-11-09T14:47:56.617Z,26.00
2022-11-09T14:50:27.406Z,26.00
2022-11-09T14:52:56.825Z,25.90
2022-11-09T14:55:26.101Z,25.80
2022-11-09T14:57:57.174Z,25.70
2022-11-09T15:00:33.061Z,25.60
2022-11-09T15:03:21.829Z,25.40
2022-11-09T15:05:50.358Z,25.00
2022-11-09T15:08:23.199Z,24.80
2022-11-09T15:10:53.101Z,24.70
2022-11-09T15:13:30.843Z,24.60
2022-11-09T15:15:59.164Z,24.60
2022-11-09T15:18:33.949Z,24.60
2022-11-09T15:21:17.051Z,24.60
2022-11-09T15:23:47.486Z,24.60
2022-11-09T15:26:37.463Z,24.40
2022-11-09T15:29:36.239Z,24.90
2022-11-09T15:32:14.325Z,24.30
2022-11-09T15:34:56.129Z,23.60
2022-11-09T15:37:28.227Z,24.10
2022-11-09T15:39:56.825Z,24.20
2022-11-09T15:44:57.273Z,23.10
2022-11-09T15:47:32.190Z,24.20
2022-11-09T15:50:01.017Z,23.10
2022-11-09T15:52:29.794Z,24.10
2022-11-09T15:59:56.350Z,23.50
2022-11-09T16:02:24.478Z,22.80
2022-11-09T16:04:52.591Z,23.80
2022-11-09T16:07:20.764Z,23.80
2022-11-09T16:09:49.062Z,23.30
2022-11-09T16:12:17.137Z,23.50
2022-11-09T16:14:45.232Z,24.00
2022-11-09T16:17:14.711Z,23.80
2022-11-09T16:19:43.326Z,23.90
2022-11-09T16:22:12.025Z,24.20
2022-11-09T16:27:22.174Z,23.40
2022-11-09T16:29:57.098Z,23.40
2022-11-09T16:32:26.676Z,23.50
2022-11-09T16:35:15.520Z,22.70
2022-11-09T16:37:43.395Z,22.50
2022-11-09T16:42:42.378Z,22.40
2022-11-09T16:45:13.296Z,22.60
2022-11-09T16:47:45.291Z,21.90
2022-11-09T16:50:13.738Z,21.60
2022-11-09T16:52:41.893Z,22.00
2022-11-09T16:55:10.707Z,22.00
2022-11-09T16:57:39.035Z,22.10
2022-11-09T17:00:08.561Z,22.30
2022-11-09T17:02:36.803Z,21.90
2022-11-09T17:05:07.539Z,22.00
2022-11-09T17:07:42.189Z,22.30
2022-11-09T17:10:11.547Z,22.10
2022-11-09T17:12:39.669Z,22.20
2022-11-09T17:15:09.084Z,22.20
2022-11-09T17:17:37.178Z,22.30
2022-11-09T17:20:08.012Z,22.50
2022-11-09T17:25:10.187Z,22.60
2022-11-09T17:27:39.231Z,22.50
2022-11-09T17:30:08.981Z,22.30
2022-11-09T17:32:38.109Z,22.60
2022-11-09T17:37:35.993Z,22.00
2022-11-09T17:52:27.355Z,22.20
2022-11-09T18:09:47.017Z,22.20
2022-11-09T18:12:16.504Z,21.80
2022-11-09T18:24:41.224Z,21.60
2022-11-09T18:27:10.670Z,22.40
2022-11-09T18:29:38.723Z,21.60
2022-11-09T18:42:01.947Z,21.40
2022-11-09T18:44:31.426Z,21.40
2022-11-09T18:47:05.030Z,22.20
2022-11-09T18:52:02.410Z,22.10
2022-11-09T19:01:57.898Z,21.60
2022-11-09T19:04:25.958Z,21.60
2022-11-09T19:12:00.872Z,21.80
2022-11-09T19:16:58.882Z,21.70
2022-11-09T19:21:56.850Z,21.60
2022-11-09T19:24:26.620Z,21.40
2022-11-09T19:34:22.949Z,21.70
2022-11-09T19:46:46.652Z,20.50
2022-11-09T19:51:44.579Z,21.60
2022-11-09T19:54:14.442Z,21.20
2022-11-09T19:59:15.233Z,21.90
2022-11-09T20:06:41.505Z,20.90
2022-11-09T20:09:11.024Z,20.80
2022-11-09T20:19:23.801Z,20.90
2022-11-09T20:21:52.165Z,21.50
2022-11-09T20:24:21.677Z,20.40
2022-11-09T20:34:14.850Z,20.40
2022-11-09T20:36:43.032Z,20.80
2022-11-09T20:41:40.880Z,21.00
2022-11-09T20:49:06.490Z,20.50
2022-11-09T20:59:06.098Z,20.60
2022-11-09T21:01:34.674Z,21.00
2022-11-09T21:09:01.347Z,20.90
2022-11-09T21:11:35.636Z,19.60
2022-11-09T21:14:05.467Z,20.50
2022-11-09T21:16:33.973Z,20.50
2022-11-09T21:19:02.081Z,20.40
2022-11-09T21:21:36.139Z,20.60
2022-11-09T21:24:22.646Z,20.00
2022-11-09T21:29:52.915Z,19.80
2022-11-09T21:32:22.250Z,20.30
2022-11-09T21:34:51.418Z,20.50
2022-11-09T21:37:19.537Z,20.50
2022-11-09T21:42:16.230Z,20.20
2022-11-09T21:44:45.752Z,20.10
2022-11-09T21:47:14.070Z,19.90
2022-11-09T21:49:42.200Z,20.10
2022-11-09T21:52:11.505Z,19.90
2022-11-09T21:54:40.659Z,20.10
2022-11-09T21:57:08.717Z,19.90
2022-11-09T21:59:36.815Z,19.90
2022-11-09T22:02:06.264Z,20.00
2022-11-09T22:04:34.359Z,20.10
2022-11-09T22:07:02.475Z,20.00
2022-11-09T22:09:50.387Z,19.90
2022-11-09T22:12:36.126Z,19.70
2022-11-09T22:15:21.738Z,20.40
2022-11-09T22:17:54.507Z,19.70
2022-11-09T22:23:08.577Z,19.70
2022-11-09T22:25:36.678Z,19.60
2022-11-09T22:28:04.778Z,19.70
2022-11-09T22:30:32.886Z,19.70
2022-11-09T22:33:02.333Z,19.70
2022-11-09T22:39:17.245Z,19.80
2022-11-09T22:41:45.317Z,19.80
2022-11-09T22:44:14.115Z,20.10
2022-11-09T22:46:42.202Z,19.20
2022-11-09T22:49:11.612Z,19.40
2022-11-09T22:51:39.683Z,19.60
2022-11-09T22:54:07.902Z,19.70
2022-11-09T22:56:35.985Z,19.60
2022-11-09T22:59:04.020Z,19.90
2022-11-09T23:01:32.182Z,19.60
2022-11-09T23:04:00.272Z,19.80
2022-11-09T23:06:29.873Z,19.90
2022-11-09T23:08:57.955Z,19.90
2022-11-09T23:11:26.503Z,19.60
2022-11-09T23:13:56.294Z,19.60
2022-11-09T23:16:25.118Z,19.50
2022-11-09T23:18:54.960Z,19.70
2022-11-09T23:21:25.661Z,19.40
2022-11-09T23:23:58.295Z,19.70
2022-11-09T23:26:26.169Z,19.10
2022-11-09T23:28:54.670Z,19.40
2022-11-09T23:31:25.092Z,19.30
2022-11-09T23:33:54.446Z,19.40
2022-11-09T23:36:23.590Z,19.60
2022-11-09T23:38:52.032Z,19.50
2022-11-09T23:41:21.780Z,19.70
2022-11-09T23:43:50.286Z,19.30
2022-11-09T23:46:19.044Z,19.30
2022-11-09T23:48:47.122Z,19.30
2022-11-09T23:51:15.217Z,19.40
2022-11-09T23:53:43.291Z,19.40
2022-11-09T23:56:13.001Z,19.20
2022-11-09T23:58:42.442Z,19.30
